createdAt,value
2022-10-05T00:00:43.431Z,96163.25
2022-10-05T00:03:14.337Z,96159.16
2022-10-05T00:05:42.365Z,96157.53
2022-10-05T00:08:16.720Z,96158.34
2022-10-05T00:10:46.300Z,96152.47
2022-10-05T00:13:15.805Z,96159.50
2022-10-05T00:15:43.949Z,96158.09
2022-10-05T00:18:15.522Z,96162.06
2022-10-05T00:20:43.782Z,96148.16
2022-10-05T00:23:19.001Z,96144.28
2022-10-05T00:25:46.711Z,96138.69
2022-10-05T00:28:19.540Z,96137.38
2022-10-05T00:30:47.253Z,96140.53
2022-10-05T00:33:14.906Z,96127.78
2022-10-05T00:35:42.644Z,96109.94
2022-10-05T00:38:10.333Z,96114.13
2022-10-05T00:40:51.791Z,96114.94
2022-10-05T00:43:35.836Z,96110.25
2022-10-05T00:46:09.282Z,96110.50
2022-10-05T00:48:44.602Z,96113.28
2022-10-05T00:51:24.530Z,96109.78
2022-10-05T00:54:03.541Z,96102.41
2022-10-05T00:56:44.891Z,96110.25
2022-10-05T00:59:19.515Z,96107.66
2022-10-05T01:01:58.605Z,96114.66
2022-10-05T01:04:36.642Z,96103.59
2022-10-05T01:07:12.719Z,96104.16
2022-10-05T01:09:50.983Z,96099.06
2022-10-05T01:12:26.839Z,96102.44
2022-10-05T01:15:03.435Z,96097.41
2022-10-05T01:17:40.184Z,96100.09
2022-10-05T01:20:28.226Z,96095.53
2022-10-05T01:23:24.827Z,96084.66
2022-10-05T01:26:08.251Z,96083.50
2022-10-05T01:28:41.956Z,96082.22
2022-10-05T01:31:13.765Z,96074.97
2022-10-05T01:33:47.481Z,96069.81
2022-10-05T01:36:25.792Z,96068.00
2022-10-05T01:39:00.349Z,96078.50
2022-10-05T01:41:37.525Z,96067.03
2022-10-05T01:44:12.186Z,96069.94
2022-10-05T01:46:45.023Z,96071.00
2022-10-05T01:49:36.889Z,96067.28
2022-10-05T01:52:13.580Z,96058.38
2022-10-05T01:54:50.309Z,96061.44
2022-10-05T01:57:28.388Z,96061.06
2022-10-05T02:00:05.534Z,96063.63
2022-10-05T02:02:38.273Z,96065.03
2022-10-05T02:05:10.830Z,96061.19
2022-10-05T02:07:46.902Z,96063.53
2022-10-05T02:10:21.575Z,96064.13
2022-10-05T02:12:55.444Z,96061.44
2022-10-05T02:15:28.360Z,96053.13
2022-10-05T02:18:04.986Z,96055.56
2022-10-05T02:20:35.959Z,96050.56
2022-10-05T02:23:08.902Z,96045.41
2022-10-05T02:25:39.371Z,96043.31
2022-10-05T02:28:13.430Z,96039.94
2022-10-05T02:30:47.858Z,96045.19
2022-10-05T02:33:22.609Z,96040.63
2022-10-05T02:35:50.273Z,96032.44
2022-10-05T02:38:24.528Z,96038.31
2022-10-05T02:41:00.398Z,96044.50
2022-10-05T02:43:40.349Z,96040.63
2022-10-05T02:46:19.094Z,96035.50
2022-10-05T02:49:01.864Z,96036.19
2022-10-05T02:51:35.262Z,96028.59
2022-10-05T02:54:15.007Z,96023.22
2022-10-05T02:56:49.218Z,96018.06
2022-10-05T02:59:25.201Z,96017.03
2022-10-05T03:02:00.036Z,96026.38
2022-10-05T03:04:36.941Z,96034.44
2022-10-05T03:07:13.269Z,96023.34
2022-10-05T03:09:47.020Z,96028.13
2022-10-05T03:12:29.308Z,96023.09
2022-10-05T03:15:09.408Z,96029.53
2022-10-05T03:17:47.013Z,96032.09
2022-10-05T03:20:25.225Z,96030.22
2022-10-05T03:22:57.993Z,96027.41
2022-10-05T03:25:42.090Z,96027.41
2022-10-05T03:28:16.853Z,96020.28
2022-10-05T03:30:53.859Z,96039.09
2022-10-05T03:33:31.814Z,96036.75
2022-10-05T03:36:07.273Z,96035.94
2022-10-05T03:38:43.466Z,96035.00
2022-10-05T03:41:18.375Z,96030.91
2022-10-05T03:44:05.609Z,96032.16
2022-10-05T03:46:45.956Z,96043.41
2022-10-05T03:49:23.554Z,96046.91
2022-10-05T03:51:57.399Z,96041.16
2022-10-05T03:54:30.048Z,96038.34
2022-10-05T03:57:04.196Z,96035.44
2022-10-05T03:59:38.935Z,96027.28
2022-10-05T04:02:08.703Z,96024.13
2022-10-05T04:04:42.603Z,96029.38
2022-10-05T04:07:23.125Z,96026.25
2022-10-05T04:09:52.077Z,96029.38
2022-10-05T04:12:25.153Z,96027.97
2022-10-05T04:14:59.956Z,96023.88
2022-10-05T04:17:35.635Z,96028.56
2022-10-05T04:20:10.293Z,96017.81
2022-10-05T04:22:41.591Z,96016.78
2022-10-05T04:25:17.859Z,96013.13
2022-10-05T04:27:52.865Z,96009.41
2022-10-05T04:30:22.200Z,96012.91
2022-10-05T04:32:54.660Z,96027.00
2022-10-05T04:35:41.619Z,96016.50
2022-10-05T04:38:41.427Z,96025.03
2022-10-05T04:41:31.405Z,96017.31
2022-10-05T04:44:14.587Z,96025.28
2022-10-05T04:47:01.757Z,96019.19
2022-10-05T04:49:44.768Z,96016.41
2022-10-05T04:52:18.723Z,96034.38
2022-10-05T04:55:00.010Z,96030.66
2022-10-05T04:57:33.328Z,96034.38
2022-10-05T05:00:18.143Z,96032.53
2022-10-05T05:03:02.736Z,96040.00
2022-10-05T05:06:04.977Z,96032.53
2022-10-05T05:08:50.936Z,96046.41
2022-10-05T05:11:30.350Z,96044.31
2022-10-05T05:14:16.244Z,96050.97
2022-10-05T05:16:46.957Z,96042.91
2022-10-05T05:19:37.927Z,96039.09
2022-10-05T05:22:08.556Z,96047.06
2022-10-05T05:24:50.107Z,96048.19
2022-10-05T05:27:49.904Z,96043.66
2022-10-05T05:30:23.232Z,96051.47
2022-10-05T05:33:02.469Z,96047.38
2022-10-05T05:36:08.680Z,96048.47
2022-10-05T05:38:41.503Z,96051.59
2022-10-05T05:41:14.002Z,96052.44
2022-10-05T05:43:54.094Z,96053.59
2022-10-05T05:46:51.151Z,96052.56
2022-10-05T05:49:19.043Z,96053.28
2022-10-05T05:51:53.272Z,96051.38
2022-10-05T05:54:32.347Z,96050.91
2022-10-05T05:57:10.926Z,96050.81
2022-10-05T05:59:51.752Z,96053.03
2022-10-05T06:02:22.717Z,96050.22
2022-10-05T06:04:53.508Z,96055.00
2022-10-05T06:07:30.393Z,96052.09
2022-10-05T06:10:07.179Z,96053.81
2022-10-05T06:12:42.622Z,96049.94
2022-10-05T06:15:22.040Z,96044.63
2022-10-05T06:17:54.625Z,96046.84
2022-10-05T06:20:28.437Z,96046.16
2022-10-05T06:23:00.507Z,96045.03
2022-10-05T06:25:38.723Z,96047.31
2022-10-05T06:28:11.927Z,96045.53
2022-10-05T06:30:49.640Z,96034.66
2022-10-05T06:33:31.097Z,96037.28
2022-10-05T06:36:16.053Z,96045.13
2022-10-05T06:39:11.473Z,96038.94
2022-10-05T06:41:52.497Z,96050.53
2022-10-05T06:44:27.224Z,96046.50
2022-10-05T06:47:01.976Z,96049.38
2022-10-05T06:49:37.432Z,96045.63
2022-10-05T06:52:11.896Z,96046.84
2022-10-05T06:54:47.223Z,96054.88
2022-10-05T06:57:32.399Z,96054.75
2022-10-05T07:00:05.469Z,96057.16
2022-10-05T07:06:01.655Z,96062.88
2022-10-05T07:08:41.648Z,96064.22
2022-10-05T07:11:23.901Z,96059.56
2022-10-05T07:14:04.808Z,96052.25
2022-10-05T07:16:45.582Z,96058.41
2022-10-05T07:19:29.607Z,96059.56
2022-10-05T07:22:18.080Z,96054.59
2022-10-05T07:24:58.576Z,96057.56
2022-10-05T07:27:30.912Z,96060.78
2022-10-05T07:30:03.443Z,96046.84
2022-10-05T07:32:40.809Z,96050.16
2022-10-05T07:35:29.211Z,96041.25
2022-10-05T07:38:00.909Z,96043.00
2022-10-05T07:40:33.651Z,96050.16
2022-10-05T07:43:15.466Z,96048.56
2022-10-05T07:45:47.585Z,96048.63
2022-10-05T07:48:22.076Z,96045.88
2022-10-05T07:51:00.778Z,96037.38
2022-10-05T07:53:35.256Z,96035.47
2022-10-05T07:56:07.487Z,96043.19
2022-10-05T07:58:43.947Z,96038.19
2022-10-05T08:01:19.132Z,96045.47
2022-10-05T08:03:53.684Z,96043.44
2022-10-05T08:06:39.267Z,96043.31
2022-10-05T08:09:20.978Z,96049.44
2022-10-05T08:11:56.804Z,96048.56
2022-10-05T08:14:33.658Z,96049.66
2022-10-05T08:17:07.150Z,96052.41
2022-10-05T08:19:44.361Z,96052.41
2022-10-05T08:22:21.032Z,96056.38
2022-10-05T08:24:55.709Z,96056.38
2022-10-05T08:27:27.905Z,96055.22
2022-10-05T08:30:01.373Z,96065.88
2022-10-05T08:32:32.846Z,96073.28
2022-10-05T08:35:14.159Z,96063.41
2022-10-05T08:37:45.051Z,96064.03
2022-10-05T08:41:01.759Z,96070.00
2022-10-05T08:43:47.513Z,96058.03
2022-10-05T08:46:37.324Z,96062.84
2022-10-05T08:49:40.073Z,96057.28
2022-10-05T08:52:26.159Z,96064.00
2022-10-05T08:55:35.706Z,96069.25
2022-10-05T08:58:30.570Z,96062.03
2022-10-05T09:01:08.547Z,96059.13
2022-10-05T09:03:59.529Z,96054.47
2022-10-05T09:07:05.827Z,96050.47
2022-10-05T09:09:51.059Z,96056.66
2022-10-05T09:12:41.029Z,96051.50
2022-10-05T09:15:34.939Z,96050.84
2022-10-05T09:18:32.138Z,96054.53
2022-10-05T09:21:03.981Z,96054.38
2022-10-05T09:23:40.272Z,96055.28
2022-10-05T09:26:29.869Z,96050.78
2022-10-05T09:29:15.938Z,96052.09
2022-10-05T09:32:06.584Z,96048.28
2022-10-05T09:34:54.074Z,96053.34
2022-10-05T09:37:49.238Z,96050.53
2022-10-05T09:41:04.035Z,96055.09
2022-10-05T09:44:03.654Z,96053.09
2022-10-05T09:46:53.458Z,96055.31
2022-10-05T09:49:39.552Z,96054.47
2022-10-05T09:52:19.354Z,96054.22
2022-10-05T09:55:18.970Z,96044.94
2022-10-05T09:58:31.889Z,96044.81
2022-10-05T10:01:36.375Z,96055.19
2022-10-05T10:04:22.294Z,96047.13
2022-10-05T10:07:18.976Z,96047.56
2022-10-05T10:10:09.013Z,96045.94
2022-10-05T10:12:53.058Z,96038.78
2022-10-05T10:15:50.997Z,96038.66
2022-10-05T10:18:35.785Z,96036.50
2022-10-05T10:21:21.509Z,96031.50
2022-10-05T10:24:02.040Z,96032.84
2022-10-05T10:26:55.796Z,96029.72
2022-10-05T10:30:14.446Z,96029.91
2022-10-05T10:33:13.331Z,96036.44
2022-10-05T10:35:50.280Z,96027.97
2022-10-05T10:38:31.278Z,96033.88
2022-10-05T10:41:32.426Z,96034.28
2022-10-05T10:44:19.830Z,96033.22
2022-10-05T10:46:54.649Z,96036.00
2022-10-05T10:49:40.943Z,96030.72
2022-10-05T10:52:33.513Z,96031.00
2022-10-05T10:55:35.594Z,96032.94
2022-10-05T10:58:39.761Z,96035.38
2022-10-05T11:01:22.592Z,96033.88
2022-10-05T11:04:10.080Z,96025.44
2022-10-05T11:07:13.058Z,96017.91
2022-10-05T11:10:04.378Z,96017.91
2022-10-05T11:13:14.971Z,96013.84
2022-10-05T11:16:15.829Z,96015.09
2022-10-05T11:19:16.984Z,96008.03
2022-10-05T11:21:56.074Z,96000.53
2022-10-05T11:24:44.807Z,96001.78
2022-10-05T11:27:26.720Z,95995.94
2022-10-05T11:30:30.384Z,96004.00
2022-10-05T11:33:42.815Z,95990.31
2022-10-05T11:36:45.924Z,95990.16
2022-10-05T11:39:33.108Z,95987.25
2022-10-05T11:42:30.628Z,95981.16
2022-10-05T11:45:16.315Z,95976.06
2022-10-05T11:47:58.230Z,95979.81
2022-10-05T11:50:33.126Z,95969.44
2022-10-05T11:53:07.410Z,95971.66
2022-10-05T11:55:40.275Z,95974.69
2022-10-05T11:58:17.190Z,95971.53
2022-10-05T12:00:50.005Z,95958.66
2022-10-05T12:03:44.320Z,95964.84
2022-10-05T12:06:43.758Z,95959.41
2022-10-05T12:09:26.410Z,95948.00
2022-10-05T12:12:08.300Z,95947.72
2022-10-05T12:14:49.935Z,95946.84
2022-10-05T12:17:25.502Z,95938.53
2022-10-05T12:19:59.213Z,95940.41
2022-10-05T12:22:32.865Z,95953.66
2022-10-05T12:25:07.391Z,95942.00
2022-10-05T12:27:39.328Z,95940.59
2022-10-05T12:30:15.847Z,95941.16
2022-10-05T12:32:58.118Z,95933.22
2022-10-05T12:35:47.467Z,95928.97
2022-10-05T12:38:22.974Z,95935.75
2022-10-05T12:40:57.589Z,95925.09
2022-10-05T12:43:34.558Z,95933.72
2022-10-05T12:46:10.056Z,95928.31
2022-10-05T12:48:56.168Z,95918.22
2022-10-05T12:51:33.077Z,95919.13
2022-10-05T12:54:10.906Z,95922.19
2022-10-05T12:56:49.342Z,95915.63
2022-10-05T12:59:33.623Z,95912.75
2022-10-05T13:02:12.907Z,95913.38
2022-10-05T13:04:50.451Z,95912.69
2022-10-05T13:07:40.594Z,95911.31
2022-10-05T13:10:30.035Z,95916.91
2022-10-05T13:13:08.230Z,95917.72
2022-10-05T13:15:42.631Z,95915.91
2022-10-05T13:18:19.774Z,95921.63
2022-10-05T13:20:55.097Z,95913.22
2022-10-05T13:23:31.351Z,95912.16
2022-10-05T13:26:04.985Z,95914.53
2022-10-05T13:28:38.702Z,95910.19
2022-10-05T13:31:13.066Z,95905.59
2022-10-05T13:33:57.319Z,95911.88
2022-10-05T13:36:35.988Z,95912.75
2022-10-05T13:39:12.403Z,95910.94
2022-10-05T13:41:50.546Z,95910.50
2022-10-05T13:44:26.930Z,95907.75
2022-10-05T13:47:01.800Z,95899.06
2022-10-05T13:49:39.339Z,95904.31
2022-10-05T13:52:20.900Z,95899.31
2022-10-05T13:54:54.497Z,95907.13
2022-10-05T13:57:36.026Z,95902.13
2022-10-05T14:00:14.459Z,95895.72
2022-10-05T14:02:47.230Z,95899.16
2022-10-05T14:05:20.292Z,95892.94
2022-10-05T14:07:54.325Z,95895.91
2022-10-05T14:10:35.696Z,95901.72
2022-10-05T14:13:19.265Z,95904.22
2022-10-05T14:16:15.767Z,95904.72
2022-10-05T14:18:54.163Z,95899.97
2022-10-05T14:21:25.111Z,95895.00
2022-10-05T14:23:53.938Z,95901.75
2022-10-05T14:26:35.624Z,95903.50
2022-10-05T14:29:16.729Z,95897.84
2022-10-05T14:31:50.821Z,95900.09
2022-10-05T14:34:31.325Z,95899.31
2022-10-05T14:37:04.707Z,95901.19
2022-10-05T14:39:36.112Z,95896.22
2022-10-05T14:42:15.226Z,95899.34
2022-10-05T14:44:42.959Z,95893.72
2022-10-05T14:47:19.590Z,95895.88
2022-10-05T14:50:10.743Z,95903.44
2022-10-05T14:52:41.657Z,95900.06
2022-10-05T14:55:25.063Z,95905.31
2022-10-05T14:58:04.278Z,95910.00
2022-10-05T15:00:38.862Z,95897.06
2022-10-05T15:03:27.329Z,95902.22
2022-10-05T15:06:00.110Z,95903.66
2022-10-05T15:08:48.204Z,95900.03
2022-10-05T15:11:32.656Z,95897.50
2022-10-05T15:14:01.763Z,95895.47
2022-10-05T15:16:33.809Z,95899.31
2022-10-05T15:19:16.348Z,95898.53
2022-10-05T15:22:01.587Z,95900.94
2022-10-05T15:24:43.360Z,95898.78
2022-10-05T15:27:20.653Z,95903.25
2022-10-05T15:30:04.562Z,95903.13
2022-10-05T15:32:50.133Z,95896.97
2022-10-05T15:35:38.200Z,95898.19
2022-10-05T15:38:20.891Z,95896.53
2022-10-05T15:41:01.403Z,95899.84
2022-10-05T15:43:46.988Z,95903.25
2022-10-05T15:46:19.815Z,95900.34
2022-10-05T15:48:55.559Z,95901.88
2022-10-05T15:51:36.283Z,95898.06
2022-10-05T15:54:28.727Z,95899.31
2022-10-05T15:57:06.023Z,95890.09
2022-10-05T15:59:43.752Z,95893.53
2022-10-05T16:02:20.078Z,95897.25
2022-10-05T16:04:58.966Z,95904.09
2022-10-05T16:07:55.709Z,95898.69
2022-10-05T16:10:25.966Z,95903.81
2022-10-05T16:13:07.969Z,95911.88
2022-10-05T16:15:42.743Z,95910.88
2022-10-05T16:18:35.938Z,95906.41
2022-10-05T16:21:14.851Z,95904.44
2022-10-05T16:23:55.603Z,95904.63
2022-10-05T16:26:32.763Z,95912.91
2022-10-05T16:29:10.563Z,95912.75
2022-10-05T16:31:46.640Z,95922.56
2022-10-05T16:34:32.223Z,95922.19
2022-10-05T16:37:09.881Z,95920.38
2022-10-05T16:39:59.274Z,95928.53
2022-10-05T16:42:51.053Z,95927.97
2022-10-05T16:45:47.034Z,95930.75
2022-10-05T16:48:25.733Z,95923.81
2022-10-05T16:51:23.374Z,95923.81
2022-10-05T16:54:01.365Z,95930.25
2022-10-05T16:56:38.712Z,95926.56
2022-10-05T16:59:39.725Z,95937.06
2022-10-05T17:02:19.299Z,95936.19
2022-10-05T17:05:01.271Z,95946.75
2022-10-05T17:07:54.684Z,95946.72
2022-10-05T17:10:41.222Z,95953.88
2022-10-05T17:13:24.719Z,95953.28
2022-10-05T17:16:05.014Z,95956.00
2022-10-05T17:19:11.852Z,95959.19
2022-10-05T17:21:46.727Z,95967.06
2022-10-05T17:24:29.799Z,95962.00
2022-10-05T17:27:03.677Z,95968.72
2022-10-05T17:29:48.294Z,95976.50
2022-10-05T17:32:39.653Z,95978.25
2022-10-05T17:35:20.427Z,95979.03
2022-10-05T17:38:14.586Z,95986.03
2022-10-05T17:41:06.508Z,95989.41
2022-10-05T17:43:35.507Z,95989.75
2022-10-05T17:46:07.852Z,96003.22
2022-10-05T17:48:42.270Z,96000.13
2022-10-05T17:51:37.111Z,96007.56
2022-10-05T17:54:41.132Z,95998.69
2022-10-05T17:57:21.104Z,96002.88
2022-10-05T18:00:00.501Z,96009.25
2022-10-05T18:02:44.383Z,96007.81
2022-10-05T18:05:27.899Z,96015.22
2022-10-05T18:08:37.960Z,96020.75
2022-10-05T18:11:35.976Z,96025.22
2022-10-05T18:14:19.952Z,96033.25
2022-10-05T18:17:02.152Z,96029.16
2022-10-05T18:19:32.485Z,96038.16
2022-10-05T18:22:04.634Z,96040.94
2022-10-05T18:25:06.043Z,96045.38
2022-10-05T18:27:55.661Z,96050.34
2022-10-05T18:30:25.403Z,96057.41
2022-10-05T18:33:22.219Z,96062.63
2022-10-05T18:36:19.660Z,96073.50
2022-10-05T18:39:04.811Z,96077.34
2022-10-05T18:41:45.517Z,96068.44
2022-10-05T18:44:31.403Z,96085.34
2022-10-05T18:47:08.274Z,96075.34
2022-10-05T18:49:51.924Z,96081.88
2022-10-05T18:52:30.943Z,96089.50
2022-10-05T18:55:08.057Z,96086.25
2022-10-05T18:58:18.240Z,96098.28
2022-10-05T19:01:24.924Z,96091.22
2022-10-05T19:04:05.982Z,96098.03
2022-10-05T19:06:43.729Z,96100.25
2022-10-05T19:09:26.801Z,96101.34
2022-10-05T19:12:02.706Z,96107.34
2022-10-05T19:14:38.833Z,96108.47
2022-10-05T19:17:24.160Z,96107.34
2022-10-05T19:20:04.615Z,96108.47
2022-10-05T19:22:49.695Z,96116.91
2022-10-05T19:25:27.045Z,96115.28
2022-10-05T19:28:08.747Z,96119.88
2022-10-05T19:30:51.257Z,96118.25
2022-10-05T19:33:44.634Z,96122.09
2022-10-05T19:36:30.360Z,96130.78
2022-10-05T19:39:08.503Z,96133.25
2022-10-05T19:41:58.823Z,96132.97
2022-10-05T19:44:42.792Z,96136.22
2022-10-05T19:47:24.110Z,96142.75
2022-10-05T19:50:00.561Z,96149.28
2022-10-05T19:52:45.193Z,96145.72
2022-10-05T19:55:26.544Z,96148.97
2022-10-05T19:57:56.508Z,96158.44
2022-10-05T20:00:27.073Z,96161.16
2022-10-05T20:03:10.336Z,96159.16
2022-10-05T20:05:38.937Z,96160.63
2022-10-05T20:08:14.330Z,96162.41
2022-10-05T20:10:42.662Z,96151.91
2022-10-05T20:13:20.954Z,96145.75
2022-10-05T20:16:28.494Z,96146.88
2022-10-05T20:19:13.843Z,96142.97
2022-10-05T20:21:48.946Z,96142.63
2022-10-05T20:24:21.041Z,96152.16
2022-10-05T20:27:16.580Z,96150.75
2022-10-05T20:29:47.000Z,96154.06
2022-10-05T20:32:18.004Z,96151.63
2022-10-05T20:34:47.841Z,96157.06
2022-10-05T20:37:17.439Z,96158.78
2022-10-05T20:39:47.409Z,96156.34
2022-10-05T20:42:15.831Z,96150.88
2022-10-05T20:44:44.553Z,96158.25
2022-10-05T20:47:13.936Z,96167.78
2022-10-05T20:49:44.995Z,96163.59
2022-10-05T20:52:15.319Z,96164.81
2022-10-05T20:54:43.798Z,96174.31
2022-10-05T20:57:14.120Z,96172.59
2022-10-05T20:59:42.245Z,96173.06
2022-10-05T21:02:10.605Z,96174.13
2022-10-05T21:04:41.496Z,96175.50
2022-10-05T21:07:10.746Z,96185.06
2022-10-05T21:09:40.959Z,96179.94
2022-10-05T21:12:08.902Z,96183.00
2022-10-05T21:14:38.981Z,96180.28
2022-10-05T21:17:07.488Z,96181.19
2022-10-05T21:19:38.592Z,96190.78
2022-10-05T21:22:08.407Z,96190.47
2022-10-05T21:24:37.047Z,96188.78
2022-10-05T21:27:05.611Z,96195.84
2022-10-05T21:29:34.327Z,96195.59
2022-10-05T21:32:08.581Z,96197.22
2022-10-05T21:34:36.693Z,96204.03
2022-10-05T21:37:04.982Z,96200.44
2022-10-05T21:39:33.613Z,96199.06
2022-10-05T21:42:01.684Z,96205.56
2022-10-05T21:44:29.839Z,96200.88
2022-10-05T21:46:58.049Z,96203.56
2022-10-05T21:49:29.111Z,96205.41
2022-10-05T21:51:57.259Z,96213.88
2022-10-05T21:54:25.546Z,96213.66
2022-10-05T21:56:56.891Z,96208.22
2022-10-05T21:59:30.555Z,96217.22
2022-10-05T22:01:59.111Z,96218.06
2022-10-05T22:04:28.353Z,96215.63
2022-10-05T22:06:56.842Z,96213.50
2022-10-05T22:09:24.600Z,96220.34
2022-10-05T22:11:52.716Z,96225.56
2022-10-05T22:14:21.205Z,96226.38
2022-10-05T22:16:49.042Z,96224.22
2022-10-05T22:19:20.971Z,96238.69
2022-10-05T22:21:50.481Z,96237.38
2022-10-05T22:24:18.397Z,96238.25
2022-10-05T22:26:51.383Z,96236.38
2022-10-05T22:29:19.819Z,96245.94
2022-10-05T22:31:49.350Z,96242.72
2022-10-05T22:34:18.360Z,96249.88
2022-10-05T22:36:47.536Z,96252.13
2022-10-05T22:39:17.852Z,96244.56
2022-10-05T22:41:45.894Z,96247.31
2022-10-05T22:44:13.860Z,96260.97
2022-10-05T22:46:41.836Z,96249.56
2022-10-05T22:49:09.771Z,96246.56
2022-10-05T22:51:37.789Z,96254.22
2022-10-05T22:54:06.582Z,96255.59
2022-10-05T22:56:37.165Z,96255.88
2022-10-05T23:05:25.424Z,96259.25
2022-10-05T23:07:53.757Z,96270.47
2022-10-05T23:10:21.965Z,96277.00
2022-10-05T23:13:00.497Z,96278.06
2022-10-05T23:15:29.270Z,96280.25
2022-10-05T23:17:57.452Z,96277.00
2022-10-05T23:20:26.603Z,96281.09
2022-10-05T23:22:54.230Z,96282.47
2022-10-05T23:25:22.377Z,96286.28
2022-10-05T23:27:49.993Z,96297.19
2022-10-05T23:30:17.811Z,96297.47
2022-10-05T23:32:45.745Z,96293.41
2022-10-05T23:35:14.397Z,96298.88
2022-10-05T23:37:45.086Z,96301.06
2022-10-05T23:40:14.479Z,96307.06
2022-10-05T23:42:42.683Z,96306.00
2022-10-05T23:45:12.163Z,96311.44
2022-10-05T23:47:40.317Z,96313.94
2022-10-05T23:50:09.728Z,96318.59
2022-10-05T23:52:38.110Z,96321.59
2022-10-05T23:55:08.124Z,96324.84
2022-10-05T23:57:35.791Z,96336.81
